sensor_id;sensor_type;location;lat;lon;timestamp;P1;durP1;ratioP1;P2;durP2;ratioP2
4174;SDS011;2101;48.290;14.382;2024-03-29T00:02:05;33.00;;;3.17;;
4174;SDS011;2101;48.290;14.382;2024-03-29T00:04:38;29.20;;;2.50;;
4174;SDS011;2101;48.290;14.382;2024-03-29T00:07:04;32.00;;;2.67;;
4174;SDS011;2101;48.290;14.382;2024-03-29T00:09:29;29.07;;;2.60;;
4174;SDS011;2101;48.290;14.382;2024-03-29T00:11:57;30.57;;;2.70;;
4174;SDS011;2101;48.290;14.382;2024-03-29T00:14:25;29.97;;;2.50;;
4174;SDS011;2101;48.290;14.382;2024-03-29T00:16:51;29.90;;;2.60;;
4174;SDS011;2101;48.290;14.382;2024-03-29T00:19:17;30.53;;;2.90;;
4174;SDS011;2101;48.290;14.382;2024-03-29T00:21:42;32.07;;;3.30;;
4174;SDS011;2101;48.290;14.382;2024-03-29T00:24:08;30.90;;;2.30;;
4174;SDS011;2101;48.290;14.382;2024-03-29T00:26:34;33.60;;;2.23;;
4174;SDS011;2101;48.290;14.382;2024-03-29T00:28:59;29.00;;;2.13;;
4174;SDS011;2101;48.290;14.382;2024-03-29T00:31:25;29.60;;;2.53;;
4174;SDS011;2101;48.290;14.382;2024-03-29T00:33:51;30.40;;;2.77;;
4174;SDS011;2101;48.290;14.382;2024-03-29T00:36:16;29.97;;;2.53;;
4174;SDS011;2101;48.290;14.382;2024-03-29T00:38:42;30.17;;;2.57;;
4174;SDS011;2101;48.290;14.382;2024-03-29T00:41:08;31.87;;;2.20;;
4174;SDS011;2101;48.290;14.382;2024-03-29T00:43:33;29.70;;;2.70;;
4174;SDS011;2101;48.290;14.382;2024-03-29T00:46:01;31.27;;;3.07;;
4174;SDS011;2101;48.290;14.382;2024-03-29T00:48:26;30.73;;;2.50;;
4174;SDS011;2101;48.290;14.382;2024-03-29T00:50:52;29.90;;;2.73;;
4174;SDS011;2101;48.290;14.382;2024-03-29T00:53:18;30.73;;;2.70;;
4174;SDS011;2101;48.290;14.382;2024-03-29T00:55:43;31.20;;;2.97;;
4174;SDS011;2101;48.290;14.382;2024-03-29T00:58:09;30.37;;;2.63;;
4174;SDS011;2101;48.290;14.382;2024-03-29T01:00:36;30.73;;;2.57;;
4174;SDS011;2101;48.290;14.382;2024-03-29T01:03:01;29.63;;;2.60;;
4174;SDS011;2101;48.290;14.382;2024-03-29T01:05:27;30.53;;;3.03;;
4174;SDS011;2101;48.290;14.382;2024-03-29T01:07:53;33.43;;;3.40;;
4174;SDS011;2101;48.290;14.382;2024-03-29T01:10:19;28.77;;;2.43;;
4174;SDS011;2101;48.290;14.382;2024-03-29T01:12:47;30.90;;;2.90;;
4174;SDS011;2101;48.290;14.382;2024-03-29T01:15:12;30.20;;;3.00;;
4174;SDS011;2101;48.290;14.382;2024-03-29T01:17:38;31.20;;;3.00;;
4174;SDS011;2101;48.290;14.382;2024-03-29T01:20:04;30.30;;;2.73;;
4174;SDS011;2101;48.290;14.382;2024-03-29T01:22:30;32.20;;;3.17;;
4174;SDS011;2101;48.290;14.382;2024-03-29T01:24:55;30.50;;;3.00;;
4174;SDS011;2101;48.290;14.382;2024-03-29T01:27:22;30.17;;;2.57;;
4174;SDS011;2101;48.290;14.382;2024-03-29T01:29:49;32.63;;;3.07;;
4174;SDS011;2101;48.290;14.382;2024-03-29T01:32:17;32.40;;;2.73;;
4174;SDS011;2101;48.290;14.382;2024-03-29T01:34:42;30.80;;;3.07;;
4174;SDS011;2101;48.290;14.382;2024-03-29T01:37:08;30.57;;;2.87;;
4174;SDS011;2101;48.290;14.382;2024-03-29T01:39:34;32.03;;;3.30;;
4174;SDS011;2101;48.290;14.382;2024-03-29T01:41:59;28.37;;;2.20;;
4174;SDS011;2101;48.290;14.382;2024-03-29T01:44:25;31.90;;;2.97;;
4174;SDS011;2101;48.290;14.382;2024-03-29T01:46:51;28.97;;;2.20;;
4174;SDS011;2101;48.290;14.382;2024-03-29T01:49:16;31.70;;;3.13;;
4174;SDS011;2101;48.290;14.382;2024-03-29T01:51:43;29.37;;;2.50;;
4174;SDS011;2101;48.290;14.382;2024-03-29T01:54:09;29.87;;;2.60;;
4174;SDS011;2101;48.290;14.382;2024-03-29T01:56:36;30.70;;;2.70;;
4174;SDS011;2101;48.290;14.382;2024-03-29T01:59:04;31.50;;;2.70;;
4174;SDS011;2101;48.290;14.382;2024-03-29T02:01:35;31.53;;;2.73;;
4174;SDS011;2101;48.290;14.382;2024-03-29T02:04:01;28.37;;;2.20;;
4174;SDS011;2101;48.290;14.382;2024-03-29T02:06:28;32.80;;;2.43;;
4174;SDS011;2101;48.290;14.382;2024-03-29T02:08:55;28.30;;;2.20;;
4174;SDS011;2101;48.290;14.382;2024-03-29T02:11:21;29.40;;;2.30;;
4174;SDS011;2101;48.290;14.382;2024-03-29T02:13:47;29.53;;;2.43;;
4174;SDS011;2101;48.290;14.382;2024-03-29T02:16:14;31.83;;;2.47;;
4174;SDS011;2101;48.290;14.382;2024-03-29T02:18:40;30.40;;;2.63;;
4174;SDS011;2101;48.290;14.382;2024-03-29T02:21:06;32.20;;;2.50;;
4174;SDS011;2101;48.290;14.382;2024-03-29T02:23:32;30.40;;;2.60;;
4174;SDS011;2101;48.290;14.382;2024-03-29T02:26:02;29.47;;;2.40;;
4174;SDS011;2101;48.290;14.382;2024-03-29T02:28:29;28.77;;;2.13;;
4174;SDS011;2101;48.290;14.382;2024-03-29T02:30:55;28.47;;;2.43;;
4174;SDS011;2101;48.290;14.382;2024-03-29T02:33:21;30.03;;;2.67;;
4174;SDS011;2101;48.290;14.382;2024-03-29T02:35:47;32.80;;;2.33;;
4174;SDS011;2101;48.290;14.382;2024-03-29T02:38:13;30.00;;;2.60;;
4174;SDS011;2101;48.290;14.382;2024-03-29T02:40:41;30.53;;;2.33;;
4174;SDS011;2101;48.290;14.382;2024-03-29T02:43:07;28.93;;;2.33;;
4174;SDS011;2101;48.290;14.382;2024-03-29T02:45:32;35.33;;;2.50;;
4174;SDS011;2101;48.290;14.382;2024-03-29T02:47:58;28.60;;;1.93;;
4174;SDS011;2101;48.290;14.382;2024-03-29T02:50:24;28.63;;;2.10;;
4174;SDS011;2101;48.290;14.382;2024-03-29T02:52:49;28.23;;;2.07;;
4174;SDS011;2101;48.290;14.382;2024-03-29T02:55:15;28.80;;;2.07;;
4174;SDS011;2101;48.290;14.382;2024-03-29T02:57:41;28.47;;;2.10;;
4174;SDS011;2101;48.290;14.382;2024-03-29T03:00:07;29.60;;;2.40;;
4174;SDS011;2101;48.290;14.382;2024-03-29T03:02:39;28.33;;;2.20;;
4174;SDS011;2101;48.290;14.382;2024-03-29T03:05:05;27.90;;;2.00;;
4174;SDS011;2101;48.290;14.382;2024-03-29T03:07:34;28.20;;;1.40;;
4174;SDS011;2101;48.290;14.382;2024-03-29T03:10:18;28.70;;;1.60;;
4174;SDS011;2101;48.290;14.382;2024-03-29T03:13:02;28.40;;;2.17;;
4174;SDS011;2101;48.290;14.382;2024-03-29T03:15:28;29.40;;;1.93;;
4174;SDS011;2101;48.290;14.382;2024-03-29T03:17:54;27.80;;;1.57;;
4174;SDS011;2101;48.290;14.382;2024-03-29T03:20:20;28.53;;;2.00;;
4174;SDS011;2101;48.290;14.382;2024-03-29T03:22:47;28.73;;;2.07;;
4174;SDS011;2101;48.290;14.382;2024-03-29T03:25:16;27.37;;;1.40;;
4174;SDS011;2101;48.290;14.382;2024-03-29T03:27:41;28.50;;;1.60;;
4174;SDS011;2101;48.290;14.382;2024-03-29T03:30:07;29.10;;;1.73;;
4174;SDS011;2101;48.290;14.382;2024-03-29T03:32:33;28.33;;;1.87;;
4174;SDS011;2101;48.290;14.382;2024-03-29T03:34:59;28.90;;;1.70;;
4174;SDS011;2101;48.290;14.382;2024-03-29T03:37:25;28.60;;;2.00;;
4174;SDS011;2101;48.290;14.382;2024-03-29T03:39:51;27.13;;;1.60;;
4174;SDS011;2101;48.290;14.382;2024-03-29T03:42:17;27.30;;;1.57;;
4174;SDS011;2101;48.290;14.382;2024-03-29T03:44:42;27.07;;;1.30;;
4174;SDS011;2101;48.290;14.382;2024-03-29T03:47:08;26.97;;;1.50;;
4174;SDS011;2101;48.290;14.382;2024-03-29T03:49:34;27.60;;;1.00;;
4174;SDS011;2101;48.290;14.382;2024-03-29T03:51:59;27.67;;;1.00;;
4174;SDS011;2101;48.290;14.382;2024-03-29T03:54:25;27.60;;;1.70;;
4174;SDS011;2101;48.290;14.382;2024-03-29T03:56:51;28.43;;;1.33;;
4174;SDS011;2101;48.290;14.382;2024-03-29T03:59:16;26.70;;;1.43;;
4174;SDS011;2101;48.290;14.382;2024-03-29T04:01:42;26.60;;;1.30;;
4174;SDS011;2101;48.290;14.382;2024-03-29T04:04:08;26.40;;;1.00;;
4174;SDS011;2101;48.290;14.382;2024-03-29T04:06:34;25.80;;;0.90;;
4174;SDS011;2101;48.290;14.382;2024-03-29T04:09:00;25.90;;;1.00;;
4174;SDS011;2101;48.290;14.382;2024-03-29T04:11:25;26.60;;;1.13;;
4174;SDS011;2101;48.290;14.382;2024-03-29T04:13:52;26.37;;;1.20;;
4174;SDS011;2101;48.290;14.382;2024-03-29T04:16:17;26.50;;;0.90;;
4174;SDS011;2101;48.290;14.382;2024-03-29T04:18:43;30.80;;;1.27;;
4174;SDS011;2101;48.290;14.382;2024-03-29T04:21:09;28.93;;;1.10;;
4174;SDS011;2101;48.290;14.382;2024-03-29T04:23:35;26.80;;;1.00;;
4174;SDS011;2101;48.290;14.382;2024-03-29T04:26:02;28.90;;;1.70;;
4174;SDS011;2101;48.290;14.382;2024-03-29T04:28:28;26.70;;;1.07;;
4174;SDS011;2101;48.290;14.382;2024-03-29T04:30:54;27.17;;;1.10;;
4174;SDS011;2101;48.290;14.382;2024-03-29T04:33:21;26.07;;;1.00;;
4174;SDS011;2101;48.290;14.382;2024-03-29T04:35:57;27.17;;;1.10;;
4174;SDS011;2101;48.290;14.382;2024-03-29T04:38:28;28.90;;;1.47;;
4174;SDS011;2101;48.290;14.382;2024-03-29T04:40:55;26.83;;;1.00;;
4174;SDS011;2101;48.290;14.382;2024-03-29T04:43:22;26.50;;;1.10;;
4174;SDS011;2101;48.290;14.382;2024-03-29T04:45:48;26.33;;;1.07;;
4174;SDS011;2101;48.290;14.382;2024-03-29T04:48:14;29.57;;;1.00;;
4174;SDS011;2101;48.290;14.382;2024-03-29T04:50:40;25.90;;;0.93;;
4174;SDS011;2101;48.290;14.382;2024-03-29T04:53:07;25.60;;;0.70;;
4174;SDS011;2101;48.290;14.382;2024-03-29T04:55:33;26.23;;;0.90;;
4174;SDS011;2101;48.290;14.382;2024-03-29T04:58:00;27.83;;;1.03;;
4174;SDS011;2101;48.290;14.382;2024-03-29T05:00:28;28.30;;;1.17;;
4174;SDS011;2101;48.290;14.382;2024-03-29T05:02:54;30.60;;;1.00;;
4174;SDS011;2101;48.290;14.382;2024-03-29T05:05:20;26.27;;;0.90;;
4174;SDS011;2101;48.290;14.382;2024-03-29T05:07:46;25.70;;;0.80;;
4174;SDS011;2101;48.290;14.382;2024-03-29T05:10:15;26.70;;;0.90;;
4174;SDS011;2101;48.290;14.382;2024-03-29T05:12:41;28.13;;;0.80;;
4174;SDS011;2101;48.290;14.382;2024-03-29T05:15:07;26.27;;;1.00;;
4174;SDS011;2101;48.290;14.382;2024-03-29T05:17:34;25.40;;;0.70;;
4174;SDS011;2101;48.290;14.382;2024-03-29T05:20:01;26.07;;;0.87;;
4174;SDS011;2101;48.290;14.382;2024-03-29T05:22:27;26.70;;;1.03;;
4174;SDS011;2101;48.290;14.382;2024-03-29T05:24:53;26.03;;;1.00;;
4174;SDS011;2101;48.290;14.382;2024-03-29T05:27:19;28.13;;;0.70;;
4174;SDS011;2101;48.290;14.382;2024-03-29T05:29:45;26.47;;;0.90;;
4174;SDS011;2101;48.290;14.382;2024-03-29T05:32:11;27.50;;;0.90;;
4174;SDS011;2101;48.290;14.382;2024-03-29T05:34:37;27.40;;;0.97;;
4174;SDS011;2101;48.290;14.382;2024-03-29T05:37:03;26.47;;;0.70;;
4174;SDS011;2101;48.290;14.382;2024-03-29T05:39:30;26.33;;;0.90;;
4174;SDS011;2101;48.290;14.382;2024-03-29T05:41:55;26.00;;;0.70;;
4174;SDS011;2101;48.290;14.382;2024-03-29T05:44:21;26.10;;;0.77;;
4174;SDS011;2101;48.290;14.382;2024-03-29T05:46:47;29.20;;;0.90;;
4174;SDS011;2101;48.290;14.382;2024-03-29T05:49:14;38.13;;;1.10;;
4174;SDS011;2101;48.290;14.382;2024-03-29T05:51:40;27.23;;;1.00;;
4174;SDS011;2101;48.290;14.382;2024-03-29T05:54:06;27.27;;;0.80;;
4174;SDS011;2101;48.290;14.382;2024-03-29T05:56:32;29.77;;;0.90;;
4174;SDS011;2101;48.290;14.382;2024-03-29T05:58:59;27.07;;;0.80;;
4174;SDS011;2101;48.290;14.382;2024-03-29T06:01:24;33.20;;;0.73;;
4174;SDS011;2101;48.290;14.382;2024-03-29T06:03:50;26.40;;;0.70;;
4174;SDS011;2101;48.290;14.382;2024-03-29T06:06:21;26.80;;;1.00;;
4174;SDS011;2101;48.290;14.382;2024-03-29T06:08:50;26.17;;;0.60;;
4174;SDS011;2101;48.290;14.382;2024-03-29T06:11:16;26.53;;;0.70;;
4174;SDS011;2101;48.290;14.382;2024-03-29T06:13:42;26.80;;;0.70;;
4174;SDS011;2101;48.290;14.382;2024-03-29T06:16:17;26.87;;;0.80;;
4174;SDS011;2101;48.290;14.382;2024-03-29T06:19:03;28.20;;;0.80;;
4174;SDS011;2101;48.290;14.382;2024-03-29T06:21:29;27.30;;;0.80;;
4174;SDS011;2101;48.290;14.382;2024-03-29T06:23:57;28.47;;;0.90;;
4174;SDS011;2101;48.290;14.382;2024-03-29T06:26:23;27.77;;;0.80;;
4174;SDS011;2101;48.290;14.382;2024-03-29T06:28:49;27.00;;;0.70;;
4174;SDS011;2101;48.290;14.382;2024-03-29T06:31:15;27.00;;;0.70;;
4174;SDS011;2101;48.290;14.382;2024-03-29T06:33:40;27.00;;;0.70;;
4174;SDS011;2101;48.290;14.382;2024-03-29T06:36:06;27.83;;;0.70;;
4174;SDS011;2101;48.290;14.382;2024-03-29T06:38:32;27.33;;;0.70;;
4174;SDS011;2101;48.290;14.382;2024-03-29T06:40:57;27.50;;;0.80;;
4174;SDS011;2101;48.290;14.382;2024-03-29T06:43:23;26.90;;;0.70;;
4174;SDS011;2101;48.290;14.382;2024-03-29T06:45:49;32.70;;;0.90;;
4174;SDS011;2101;48.290;14.382;2024-03-29T06:48:14;29.43;;;1.00;;
4174;SDS011;2101;48.290;14.382;2024-03-29T06:50:41;27.40;;;0.70;;
4174;SDS011;2101;48.290;14.382;2024-03-29T06:53:06;27.80;;;0.80;;
4174;SDS011;2101;48.290;14.382;2024-03-29T06:55:34;27.87;;;0.70;;
4174;SDS011;2101;48.290;14.382;2024-03-29T06:58:02;28.87;;;0.70;;
4174;SDS011;2101;48.290;14.382;2024-03-29T07:00:28;31.03;;;0.83;;
4174;SDS011;2101;48.290;14.382;2024-03-29T07:02:53;28.30;;;0.70;;
4174;SDS011;2101;48.290;14.382;2024-03-29T07:05:19;30.27;;;0.83;;
4174;SDS011;2101;48.290;14.382;2024-03-29T07:07:45;29.07;;;0.70;;
4174;SDS011;2101;48.290;14.382;2024-03-29T07:10:12;29.00;;;0.70;;
4174;SDS011;2101;48.290;14.382;2024-03-29T07:12:38;31.43;;;0.90;;
4174;SDS011;2101;48.290;14.382;2024-03-29T07:15:03;31.67;;;0.70;;
4174;SDS011;2101;48.290;14.382;2024-03-29T07:17:30;29.23;;;0.70;;
4174;SDS011;2101;48.290;14.382;2024-03-29T07:19:56;29.00;;;0.70;;
4174;SDS011;2101;48.290;14.382;2024-03-29T07:22:21;28.80;;;0.80;;
4174;SDS011;2101;48.290;14.382;2024-03-29T07:24:47;29.23;;;0.80;;
4174;SDS011;2101;48.290;14.382;2024-03-29T07:27:13;29.63;;;0.83;;
4174;SDS011;2101;48.290;14.382;2024-03-29T07:29:42;29.23;;;0.80;;
4174;SDS011;2101;48.290;14.382;2024-03-29T07:32:09;28.90;;;0.70;;
4174;SDS011;2101;48.290;14.382;2024-03-29T07:34:35;32.60;;;0.90;;
4174;SDS011;2101;48.290;14.382;2024-03-29T07:37:01;30.50;;;0.80;;
4174;SDS011;2101;48.290;14.382;2024-03-29T07:39:27;30.40;;;1.03;;
4174;SDS011;2101;48.290;14.382;2024-03-29T07:41:52;43.13;;;1.30;;
4174;SDS011;2101;48.290;14.382;2024-03-29T07:44:18;29.20;;;0.80;;
4174;SDS011;2101;48.290;14.382;2024-03-29T07:46:44;29.20;;;0.70;;
4174;SDS011;2101;48.290;14.382;2024-03-29T07:49:12;29.60;;;0.80;;
4174;SDS011;2101;48.290;14.382;2024-03-29T07:51:38;29.20;;;0.70;;
4174;SDS011;2101;48.290;14.382;2024-03-29T07:54:04;32.67;;;0.90;;
4174;SDS011;2101;48.290;14.382;2024-03-29T07:56:29;29.70;;;0.77;;
4174;SDS011;2101;48.290;14.382;2024-03-29T07:58:56;31.20;;;0.80;;
4174;SDS011;2101;48.290;14.382;2024-03-29T08:01:22;29.30;;;0.70;;
4174;SDS011;2101;48.290;14.382;2024-03-29T08:03:51;31.20;;;0.90;;
4174;SDS011;2101;48.290;14.382;2024-03-29T08:06:20;29.73;;;0.80;;
4174;SDS011;2101;48.290;14.382;2024-03-29T08:08:48;29.83;;;0.70;;
4174;SDS011;2101;48.290;14.382;2024-03-29T08:11:17;30.53;;;0.70;;
4174;SDS011;2101;48.290;14.382;2024-03-29T08:13:43;29.73;;;0.70;;
4174;SDS011;2101;48.290;14.382;2024-03-29T08:16:09;29.13;;;0.70;;
4174;SDS011;2101;48.290;14.382;2024-03-29T08:18:45;29.00;;;0.67;;
4174;SDS011;2101;48.290;14.382;2024-03-29T08:21:12;29.90;;;0.73;;
4174;SDS011;2101;48.290;14.382;2024-03-29T08:23:38;28.90;;;0.70;;
4174;SDS011;2101;48.290;14.382;2024-03-29T08:26:05;28.97;;;0.67;;
4174;SDS011;2101;48.290;14.382;2024-03-29T08:28:31;29.20;;;0.70;;
4174;SDS011;2101;48.290;14.382;2024-03-29T08:30:57;29.00;;;0.70;;
4174;SDS011;2101;48.290;14.382;2024-03-29T08:33:26;29.53;;;0.80;;
4174;SDS011;2101;48.290;14.382;2024-03-29T08:35:52;31.63;;;0.93;;
4174;SDS011;2101;48.290;14.382;2024-03-29T08:38:18;28.80;;;0.70;;
4174;SDS011;2101;48.290;14.382;2024-03-29T08:40:43;29.35;;;0.90;;
4174;SDS011;2101;48.290;14.382;2024-03-29T08:43:13;29.00;;;0.70;;
4174;SDS011;2101;48.290;14.382;2024-03-29T08:45:43;29.57;;;0.80;;
4174;SDS011;2101;48.290;14.382;2024-03-29T08:48:12;28.90;;;0.80;;
4174;SDS011;2101;48.290;14.382;2024-03-29T08:50:40;29.47;;;0.73;;
4174;SDS011;2101;48.290;14.382;2024-03-29T08:53:06;29.27;;;0.70;;
4174;SDS011;2101;48.290;14.382;2024-03-29T08:55:33;28.80;;;0.70;;
4174;SDS011;2101;48.290;14.382;2024-03-29T08:58:00;29.50;;;0.77;;
4174;SDS011;2101;48.290;14.382;2024-03-29T09:00:26;30.80;;;0.80;;
4174;SDS011;2101;48.290;14.382;2024-03-29T09:02:52;28.67;;;0.70;;
4174;SDS011;2101;48.290;14.382;2024-03-29T09:05:18;28.90;;;0.80;;
4174;SDS011;2101;48.290;14.382;2024-03-29T09:07:44;28.60;;;0.70;;
4174;SDS011;2101;48.290;14.382;2024-03-29T09:10:11;28.90;;;0.77;;
4174;SDS011;2101;48.290;14.382;2024-03-29T09:12:37;28.90;;;0.70;;
4174;SDS011;2101;48.290;14.382;2024-03-29T09:15:03;29.27;;;0.80;;
4174;SDS011;2101;48.290;14.382;2024-03-29T09:17:34;28.50;;;0.70;;
4174;SDS011;2101;48.290;14.382;2024-03-29T09:20:00;29.10;;;0.80;;
4174;SDS011;2101;48.290;14.382;2024-03-29T09:22:27;28.80;;;0.70;;
4174;SDS011;2101;48.290;14.382;2024-03-29T09:24:53;28.80;;;0.70;;
4174;SDS011;2101;48.290;14.382;2024-03-29T09:27:19;28.90;;;0.67;;
4174;SDS011;2101;48.290;14.382;2024-03-29T09:29:47;30.30;;;0.80;;
4174;SDS011;2101;48.290;14.382;2024-03-29T09:32:14;29.10;;;0.87;;
4174;SDS011;2101;48.290;14.382;2024-03-29T09:34:42;28.60;;;0.60;;
4174;SDS011;2101;48.290;14.382;2024-03-29T09:37:09;28.93;;;0.70;;
4174;SDS011;2101;48.290;14.382;2024-03-29T09:39:35;29.20;;;0.70;;
4174;SDS011;2101;48.290;14.382;2024-03-29T09:42:04;28.97;;;0.70;;
4174;SDS011;2101;48.290;14.382;2024-03-29T09:44:32;29.10;;;0.70;;
4174;SDS011;2101;48.290;14.382;2024-03-29T09:47:03;29.00;;;0.70;;
4174;SDS011;2101;48.290;14.382;2024-03-29T09:49:32;29.50;;;0.77;;
4174;SDS011;2101;48.290;14.382;2024-03-29T09:51:58;29.37;;;0.80;;
4174;SDS011;2101;48.290;14.382;2024-03-29T09:54:26;28.63;;;0.70;;
4174;SDS011;2101;48.290;14.382;2024-03-29T09:56:57;29.10;;;0.70;;
4174;SDS011;2101;48.290;14.382;2024-03-29T09:59:24;28.90;;;0.70;;
4174;SDS011;2101;48.290;14.382;2024-03-29T10:01:51;29.40;;;0.80;;
4174;SDS011;2101;48.290;14.382;2024-03-29T10:04:20;29.90;;;0.70;;
4174;SDS011;2101;48.290;14.382;2024-03-29T10:06:48;29.85;;;0.70;;
4174;SDS011;2101;48.290;14.382;2024-03-29T10:09:17;30.27;;;0.80;;
4174;SDS011;2101;48.290;14.382;2024-03-29T10:11:43;29.50;;;0.70;;
4174;SDS011;2101;48.290;14.382;2024-03-29T10:14:10;31.63;;;0.90;;
4174;SDS011;2101;48.290;14.382;2024-03-29T10:16:36;29.20;;;0.70;;
4174;SDS011;2101;48.290;14.382;2024-03-29T10:19:01;29.17;;;0.70;;
4174;SDS011;2101;48.290;14.382;2024-03-29T10:21:28;29.70;;;0.80;;
4174;SDS011;2101;48.290;14.382;2024-03-29T10:23:54;31.97;;;0.80;;
4174;SDS011;2101;48.290;14.382;2024-03-29T10:26:20;29.87;;;0.80;;
4174;SDS011;2101;48.290;14.382;2024-03-29T10:28:50;29.70;;;0.80;;
4174;SDS011;2101;48.290;14.382;2024-03-29T10:31:17;30.87;;;0.90;;
4174;SDS011;2101;48.290;14.382;2024-03-29T10:33:44;29.97;;;0.80;;
4174;SDS011;2101;48.290;14.382;2024-03-29T10:36:10;29.40;;;0.70;;
4174;SDS011;2101;48.290;14.382;2024-03-29T10:38:39;29.50;;;0.70;;
4174;SDS011;2101;48.290;14.382;2024-03-29T10:41:05;30.07;;;0.80;;
4174;SDS011;2101;48.290;14.382;2024-03-29T10:43:33;29.87;;;0.80;;
4174;SDS011;2101;48.290;14.382;2024-03-29T10:46:00;28.97;;;0.70;;
4174;SDS011;2101;48.290;14.382;2024-03-29T10:48:26;29.43;;;0.70;;
4174;SDS011;2101;48.290;14.382;2024-03-29T10:50:56;29.50;;;0.70;;
4174;SDS011;2101;48.290;14.382;2024-03-29T10:53:23;29.33;;;0.70;;
4174;SDS011;2101;48.290;14.382;2024-03-29T10:55:56;30.27;;;0.80;;
4174;SDS011;2101;48.290;14.382;2024-03-29T10:58:25;31.40;;;0.70;;
4174;SDS011;2101;48.290;14.382;2024-03-29T11:00:56;29.00;;;0.70;;
4174;SDS011;2101;48.290;14.382;2024-03-29T11:06:03;29.50;;;0.70;;
4174;SDS011;2101;48.290;14.382;2024-03-29T11:08:33;41.13;;;1.10;;
4174;SDS011;2101;48.290;14.382;2024-03-29T11:11:04;30.70;;;0.90;;
4174;SDS011;2101;48.290;14.382;2024-03-29T11:13:52;30.73;;;0.83;;
4174;SDS011;2101;48.290;14.382;2024-03-29T11:16:29;29.47;;;0.70;;
4174;SDS011;2101;48.290;14.382;2024-03-29T11:18:55;30.70;;;0.80;;
4174;SDS011;2101;48.290;14.382;2024-03-29T11:21:22;30.90;;;0.90;;
4174;SDS011;2101;48.290;14.382;2024-03-29T11:23:53;30.27;;;0.80;;
4174;SDS011;2101;48.290;14.382;2024-03-29T11:26:20;30.20;;;0.97;;
4174;SDS011;2101;48.290;14.382;2024-03-29T11:28:50;31.40;;;0.80;;
4174;SDS011;2101;48.290;14.382;2024-03-29T11:31:17;29.70;;;0.70;;
4174;SDS011;2101;48.290;14.382;2024-03-29T11:33:47;29.87;;;0.93;;
4174;SDS011;2101;48.290;14.382;2024-03-29T11:38:52;30.73;;;0.83;;
4174;SDS011;2101;48.290;14.382;2024-03-29T11:41:24;29.90;;;0.70;;
4174;SDS011;2101;48.290;14.382;2024-03-29T11:43:52;29.40;;;0.70;;
4174;SDS011;2101;48.290;14.382;2024-03-29T11:46:19;30.10;;;0.80;;
4174;SDS011;2101;48.290;14.382;2024-03-29T11:48:45;32.10;;;1.13;;
4174;SDS011;2101;48.290;14.382;2024-03-29T11:51:15;30.20;;;0.80;;
4174;SDS011;2101;48.290;14.382;2024-03-29T11:53:42;30.30;;;0.70;;
4174;SDS011;2101;48.290;14.382;2024-03-29T11:56:10;31.10;;;0.80;;
4174;SDS011;2101;48.290;14.382;2024-03-29T11:58:39;29.70;;;0.90;;
4174;SDS011;2101;48.290;14.382;2024-03-29T12:01:05;32.17;;;0.80;;
4174;SDS011;2101;48.290;14.382;2024-03-29T12:03:31;29.53;;;0.70;;
4174;SDS011;2101;48.290;14.382;2024-03-29T12:05:58;30.00;;;0.70;;
4174;SDS011;2101;48.290;14.382;2024-03-29T12:08:45;30.43;;;0.80;;
4174;SDS011;2101;48.290;14.382;2024-03-29T12:11:14;31.30;;;0.90;;
4174;SDS011;2101;48.290;14.382;2024-03-29T12:13:39;29.50;;;0.70;;
4174;SDS011;2101;48.290;14.382;2024-03-29T12:16:06;30.60;;;0.80;;
4174;SDS011;2101;48.290;14.382;2024-03-29T12:18:33;30.50;;;0.87;;
4174;SDS011;2101;48.290;14.382;2024-03-29T12:21:00;30.60;;;0.80;;
4174;SDS011;2101;48.290;14.382;2024-03-29T12:23:26;29.50;;;0.80;;
4174;SDS011;2101;48.290;14.382;2024-03-29T12:25:55;29.80;;;0.70;;
4174;SDS011;2101;48.290;14.382;2024-03-29T12:28:23;30.07;;;0.70;;
4174;SDS011;2101;48.290;14.382;2024-03-29T12:30:49;29.07;;;0.73;;
4174;SDS011;2101;48.290;14.382;2024-03-29T12:33:16;31.37;;;0.90;;
4174;SDS011;2101;48.290;14.382;2024-03-29T12:35:45;32.13;;;1.00;;
4174;SDS011;2101;48.290;14.382;2024-03-29T12:38:15;30.77;;;0.80;;
4174;SDS011;2101;48.290;14.382;2024-03-29T12:40:42;29.50;;;0.73;;
4174;SDS011;2101;48.290;14.382;2024-03-29T12:43:10;29.60;;;0.80;;
4174;SDS011;2101;48.290;14.382;2024-03-29T12:45:36;29.50;;;0.87;;
4174;SDS011;2101;48.290;14.382;2024-03-29T12:48:11;29.27;;;0.70;;
4174;SDS011;2101;48.290;14.382;2024-03-29T12:50:46;30.00;;;0.83;;
4174;SDS011;2101;48.290;14.382;2024-03-29T12:53:13;30.77;;;0.80;;
4174;SDS011;2101;48.290;14.382;2024-03-29T12:55:40;29.27;;;0.70;;
4174;SDS011;2101;48.290;14.382;2024-03-29T12:58:10;29.30;;;0.70;;
4174;SDS011;2101;48.290;14.382;2024-03-29T13:00:37;39.67;;;1.80;;
4174;SDS011;2101;48.290;14.382;2024-03-29T13:03:04;30.03;;;0.70;;
4174;SDS011;2101;48.290;14.382;2024-03-29T13:05:30;29.50;;;0.77;;
4174;SDS011;2101;48.290;14.382;2024-03-29T13:08:03;29.50;;;0.77;;
4174;SDS011;2101;48.290;14.382;2024-03-29T13:10:29;29.60;;;0.80;;
4174;SDS011;2101;48.290;14.382;2024-03-29T13:12:55;29.07;;;0.70;;
4174;SDS011;2101;48.290;14.382;2024-03-29T13:15:25;29.47;;;0.77;;
4174;SDS011;2101;48.290;14.382;2024-03-29T13:17:55;30.53;;;0.90;;
4174;SDS011;2101;48.290;14.382;2024-03-29T13:20:22;29.30;;;0.70;;
4174;SDS011;2101;48.290;14.382;2024-03-29T13:22:49;29.80;;;0.70;;
4174;SDS011;2101;48.290;14.382;2024-03-29T13:25:16;29.40;;;0.70;;
4174;SDS011;2101;48.290;14.382;2024-03-29T13:27:43;30.98;;;0.90;;
4174;SDS011;2101;48.290;14.382;2024-03-29T13:30:10;30.57;;;0.97;;
4174;SDS011;2101;48.290;14.382;2024-03-29T13:32:40;29.80;;;0.80;;
4174;SDS011;2101;48.290;14.382;2024-03-29T13:35:08;29.50;;;0.80;;
4174;SDS011;2101;48.290;14.382;2024-03-29T13:37:44;29.60;;;0.70;;
4174;SDS011;2101;48.290;14.382;2024-03-29T13:40:13;32.03;;;0.80;;
4174;SDS011;2101;48.290;14.382;2024-03-29T13:42:40;32.60;;;1.03;;
4174;SDS011;2101;48.290;14.382;2024-03-29T13:45:07;29.90;;;1.00;;
4174;SDS011;2101;48.290;14.382;2024-03-29T13:47:41;33.33;;;0.80;;
4174;SDS011;2101;48.290;14.382;2024-03-29T13:50:09;30.30;;;0.70;;
4174;SDS011;2101;48.290;14.382;2024-03-29T13:52:35;32.63;;;0.73;;
4174;SDS011;2101;48.290;14.382;2024-03-29T13:55:03;30.33;;;0.90;;
4174;SDS011;2101;48.290;14.382;2024-03-29T13:57:30;33.00;;;0.80;;
4174;SDS011;2101;48.290;14.382;2024-03-29T13:59:56;29.70;;;0.90;;
4174;SDS011;2101;48.290;14.382;2024-03-29T14:02:23;29.50;;;0.70;;
4174;SDS011;2101;48.290;14.382;2024-03-29T14:04:51;30.70;;;0.80;;
4174;SDS011;2101;48.290;14.382;2024-03-29T14:07:17;33.80;;;0.90;;
4174;SDS011;2101;48.290;14.382;2024-03-29T14:09:46;31.80;;;0.87;;
4174;SDS011;2101;48.290;14.382;2024-03-29T14:12:12;29.30;;;0.80;;
4174;SDS011;2101;48.290;14.382;2024-03-29T14:14:39;30.67;;;0.77;;
4174;SDS011;2101;48.290;14.382;2024-03-29T14:17:06;31.30;;;1.67;;
4174;SDS011;2101;48.290;14.382;2024-03-29T14:19:33;30.65;;;1.00;;
4174;SDS011;2101;48.290;14.382;2024-03-29T14:22:00;31.20;;;0.90;;
4174;SDS011;2101;48.290;14.382;2024-03-29T14:24:29;31.73;;;1.07;;
4174;SDS011;2101;48.290;14.382;2024-03-29T14:26:58;32.90;;;1.10;;
4174;SDS011;2101;48.290;14.382;2024-03-29T14:29:24;34.40;;;0.83;;
4174;SDS011;2101;48.290;14.382;2024-03-29T14:31:50;32.73;;;1.20;;
4174;SDS011;2101;48.290;14.382;2024-03-29T14:34:18;30.57;;;1.07;;
4174;SDS011;2101;48.290;14.382;2024-03-29T14:36:44;30.80;;;1.13;;
4174;SDS011;2101;48.290;14.382;2024-03-29T14:39:10;29.90;;;0.90;;
4174;SDS011;2101;48.290;14.382;2024-03-29T14:41:40;29.57;;;0.80;;
4174;SDS011;2101;48.290;14.382;2024-03-29T14:44:07;29.97;;;1.00;;
4174;SDS011;2101;48.290;14.382;2024-03-29T14:46:36;29.93;;;0.83;;
4174;SDS011;2101;48.290;14.382;2024-03-29T14:49:06;31.87;;;1.70;;
4174;SDS011;2101;48.290;14.382;2024-03-29T14:51:37;29.27;;;0.80;;
4174;SDS011;2101;48.290;14.382;2024-03-29T14:54:03;29.80;;;0.80;;